createdAt,value
2022-09-15T00:00:25.635Z,8.65
2022-09-15T00:02:53.117Z,8.98
2022-09-15T00:05:21.926Z,9.88
2022-09-15T00:07:49.584Z,9.65
2022-09-15T00:10:17.356Z,8.18
2022-09-15T00:12:46.173Z,10.75
2022-09-15T00:15:14.966Z,8.05
2022-09-15T00:17:42.728Z,10.23
2022-09-15T00:20:10.714Z,6.82
2022-09-15T00:22:38.670Z,10.02
2022-09-15T00:25:06.325Z,7.32
2022-09-15T00:27:34.119Z,7.03
2022-09-15T00:30:02.896Z,9.05
2022-09-15T00:32:30.478Z,11.40
2022-09-15T00:34:57.972Z,10.05
2022-09-15T00:37:25.417Z,9.32
2022-09-15T00:39:53.766Z,10.88
2022-09-15T00:42:22.417Z,10.40
2022-09-15T00:44:52.067Z,12.35
2022-09-15T00:47:21.392Z,16.73
2022-09-15T00:49:51.967Z,10.20
2022-09-15T00:52:24.681Z,12.63
2022-09-15T00:54:53.798Z,9.25
2022-09-15T00:57:22.394Z,10.27
2022-09-15T00:59:50.415Z,12.35
2022-09-15T01:02:19.999Z,13.23
2022-09-15T01:04:48.982Z,11.38
2022-09-15T01:07:17.872Z,10.85
2022-09-15T01:09:48.176Z,11.55
2022-09-15T01:12:15.629Z,11.10
2022-09-15T01:14:43.090Z,9.27
2022-09-15T01:17:17.101Z,8.75
2022-09-15T01:19:53.544Z,9.43
2022-09-15T01:22:26.762Z,7.28
2022-09-15T01:25:02.275Z,8.60
2022-09-15T01:27:42.437Z,10.02
2022-09-15T01:30:12.643Z,6.60
2022-09-15T01:33:07.299Z,9.60
2022-09-15T01:35:38.141Z,7.63
2022-09-15T01:38:07.672Z,8.55
2022-09-15T01:40:37.043Z,7.60
2022-09-15T01:43:05.051Z,8.18
2022-09-15T01:45:35.325Z,6.45
2022-09-15T01:48:04.360Z,10.67
2022-09-15T01:50:34.054Z,6.50
2022-09-15T01:53:02.707Z,9.10
2022-09-15T01:55:32.734Z,7.38
2022-09-15T01:58:00.248Z,9.85
2022-09-15T02:00:27.641Z,7.32
2022-09-15T02:02:59.247Z,8.50
2022-09-15T02:05:30.090Z,9.23
2022-09-15T02:08:03.305Z,6.45
2022-09-15T02:10:33.626Z,10.57
2022-09-15T02:13:06.182Z,11.33
2022-09-15T02:15:36.890Z,9.55
2022-09-15T02:18:08.467Z,7.68
2022-09-15T02:23:19.092Z,9.95
2022-09-15T02:25:48.114Z,6.63
2022-09-15T02:28:16.160Z,6.78
2022-09-15T02:30:45.059Z,10.07
2022-09-15T02:33:15.709Z,8.73
2022-09-15T02:35:43.706Z,8.95
2022-09-15T02:38:11.917Z,11.00
2022-09-15T02:40:42.171Z,7.55
2022-09-15T02:43:11.419Z,9.45
2022-09-15T02:45:38.941Z,10.18
2022-09-15T02:48:09.235Z,10.85
2022-09-15T02:50:38.434Z,11.20
2022-09-15T02:53:05.998Z,8.65
2022-09-15T02:55:33.504Z,12.38
2022-09-15T02:58:01.069Z,9.90
2022-09-15T03:00:29.034Z,12.63
2022-09-15T03:02:56.466Z,9.93
2022-09-15T03:05:24.862Z,9.63
2022-09-15T03:07:53.645Z,9.38
2022-09-15T03:10:21.669Z,10.30
2022-09-15T03:12:50.277Z,10.82
2022-09-15T03:15:18.593Z,8.95
2022-09-15T03:17:47.217Z,11.50
2022-09-15T03:20:15.480Z,10.13
2022-09-15T03:22:42.943Z,8.75
2022-09-15T03:25:12.024Z,9.30
2022-09-15T03:27:39.521Z,8.85
2022-09-15T03:30:07.785Z,9.90
2022-09-15T03:32:35.187Z,15.20
2022-09-15T03:35:02.749Z,9.32
2022-09-15T03:37:30.173Z,11.18
2022-09-15T03:39:58.061Z,10.95
2022-09-15T03:42:27.123Z,11.35
2022-09-15T03:44:54.639Z,10.13
2022-09-15T03:47:21.992Z,9.90
2022-09-15T03:49:49.393Z,8.35
2022-09-15T03:52:16.802Z,10.80
2022-09-15T03:54:44.220Z,10.43
2022-09-15T03:57:11.636Z,10.85
2022-09-15T03:59:40.416Z,10.77
2022-09-15T04:02:07.859Z,11.27
2022-09-15T04:04:35.336Z,9.57
2022-09-15T04:07:02.759Z,9.13
2022-09-15T04:09:30.557Z,12.15
2022-09-15T04:11:57.984Z,9.30
2022-09-15T04:14:25.488Z,9.07
2022-09-15T04:16:54.218Z,10.80
2022-09-15T04:19:21.711Z,10.15
2022-09-15T04:21:49.129Z,10.30
2022-09-15T04:24:17.109Z,9.88
2022-09-15T04:26:45.115Z,11.38
2022-09-15T04:29:14.006Z,8.60
2022-09-15T04:31:42.834Z,8.77
2022-09-15T04:34:11.848Z,10.75
2022-09-15T04:36:39.278Z,8.48
2022-09-15T04:39:07.007Z,8.48
2022-09-15T04:41:34.702Z,11.40
2022-09-15T04:44:02.885Z,10.60
2022-09-15T04:46:30.854Z,10.45
2022-09-15T04:48:58.289Z,7.70
2022-09-15T04:51:27.799Z,11.73
2022-09-15T04:53:55.450Z,8.25
2022-09-15T04:56:23.602Z,9.07
2022-09-15T04:58:51.856Z,7.35
2022-09-15T05:01:20.989Z,10.43
2022-09-15T05:03:48.760Z,8.85
2022-09-15T05:06:17.137Z,14.18
2022-09-15T05:08:47.599Z,7.65
2022-09-15T05:11:15.105Z,8.25
2022-09-15T05:13:42.550Z,6.53
2022-09-15T05:16:11.896Z,7.68
2022-09-15T05:18:40.297Z,12.18
2022-09-15T05:21:08.397Z,10.93
2022-09-15T05:23:36.830Z,11.38
2022-09-15T05:26:06.622Z,6.22
2022-09-15T05:28:34.737Z,9.05
2022-09-15T05:31:02.254Z,7.55
2022-09-15T05:33:29.689Z,7.10
2022-09-15T05:35:58.158Z,7.72
2022-09-15T05:38:26.185Z,10.88
2022-09-15T05:40:53.592Z,8.73
2022-09-15T05:43:22.398Z,10.25
2022-09-15T05:45:55.018Z,7.03
2022-09-15T05:48:22.521Z,7.75
2022-09-15T05:50:50.126Z,6.32
2022-09-15T05:53:17.702Z,7.40
2022-09-15T05:55:45.131Z,8.63
2022-09-15T05:58:12.667Z,4.93
2022-09-15T06:00:42.433Z,7.25
2022-09-15T06:03:13.947Z,9.80
2022-09-15T06:05:41.467Z,8.10
2022-09-15T06:08:08.857Z,5.13
2022-09-15T06:10:36.332Z,6.13
2022-09-15T06:13:03.781Z,7.82
2022-09-15T06:15:31.802Z,6.22
2022-09-15T06:18:00.584Z,9.50
2022-09-15T06:20:27.975Z,6.60
2022-09-15T06:22:56.473Z,7.28
2022-09-15T06:25:23.882Z,7.25
2022-09-15T06:27:51.350Z,9.38
2022-09-15T06:30:18.943Z,8.43
2022-09-15T06:32:48.373Z,7.10
2022-09-15T06:35:17.378Z,3.35
2022-09-15T06:37:44.811Z,5.88
2022-09-15T06:40:12.405Z,5.55
2022-09-15T06:42:39.842Z,7.43
2022-09-15T06:45:07.688Z,5.00
2022-09-15T06:47:35.357Z,4.97
2022-09-15T06:50:03.335Z,5.35
2022-09-15T06:52:32.089Z,8.20
2022-09-15T06:54:59.992Z,6.03
2022-09-15T06:57:27.380Z,4.10
2022-09-15T06:59:54.764Z,8.18
2022-09-15T07:02:22.523Z,6.32
2022-09-15T07:04:50.119Z,4.43
2022-09-15T07:07:17.673Z,5.95
2022-09-15T07:09:49.042Z,3.33
2022-09-15T07:12:16.667Z,6.60
2022-09-15T07:14:44.073Z,3.20
2022-09-15T07:17:11.479Z,5.57
2022-09-15T07:19:40.110Z,7.57
2022-09-15T07:22:07.489Z,6.22
2022-09-15T07:24:34.935Z,6.22
2022-09-15T07:27:03.707Z,6.38
2022-09-15T07:29:33.802Z,5.97
2022-09-15T07:32:03.390Z,5.05
2022-09-15T07:34:30.978Z,3.42
2022-09-15T07:36:58.370Z,3.92
2022-09-15T07:39:25.796Z,6.07
2022-09-15T07:41:53.183Z,6.20
2022-09-15T07:44:21.942Z,5.57
2022-09-15T07:46:49.358Z,2.75
2022-09-15T07:49:16.769Z,3.90
2022-09-15T07:51:44.170Z,3.90
2022-09-15T07:54:11.594Z,7.88
2022-09-15T07:56:38.980Z,7.50
2022-09-15T07:59:07.693Z,7.65
2022-09-15T08:01:36.447Z,3.40
2022-09-15T08:04:03.930Z,5.30
2022-09-15T08:06:31.382Z,7.93
2022-09-15T08:09:00.717Z,7.90
2022-09-15T08:11:28.634Z,5.65
2022-09-15T08:13:56.069Z,7.82
2022-09-15T08:16:24.263Z,4.00
2022-09-15T08:18:54.809Z,4.53
2022-09-15T08:21:22.888Z,5.03
2022-09-15T08:23:55.658Z,4.45
2022-09-15T08:26:23.476Z,4.25
2022-09-15T08:28:51.085Z,6.57
2022-09-15T08:31:19.016Z,5.63
2022-09-15T08:33:48.690Z,3.30
2022-09-15T08:36:17.527Z,5.32
2022-09-15T08:38:45.637Z,7.13
2022-09-15T08:41:14.903Z,4.45
2022-09-15T08:43:46.663Z,4.25
2022-09-15T08:46:16.974Z,5.53
2022-09-15T08:48:48.925Z,5.90
2022-09-15T08:51:22.009Z,4.18
2022-09-15T08:53:51.553Z,1.83
2022-09-15T08:56:20.620Z,4.85
2022-09-15T08:58:48.020Z,2.80
2022-09-15T09:01:23.966Z,3.42
2022-09-15T09:04:01.501Z,5.22
2022-09-15T09:06:34.900Z,2.78
2022-09-15T09:09:20.225Z,5.18
2022-09-15T09:11:55.662Z,4.30
2022-09-15T09:14:26.849Z,4.50
2022-09-15T09:19:44.166Z,3.65
2022-09-15T09:22:13.946Z,2.88
2022-09-15T09:24:44.270Z,17.33
2022-09-15T09:27:13.727Z,3.50
2022-09-15T09:29:43.523Z,2.22
2022-09-15T11:27:48.113Z,3.13
2022-09-15T11:30:18.045Z,1.88
2022-09-15T11:32:48.757Z,5.05
2022-09-15T11:38:26.470Z,1.50
2022-09-15T11:40:56.791Z,5.13
2022-09-15T11:43:29.617Z,4.65
2022-09-15T11:45:57.708Z,3.47
2022-09-15T11:48:29.226Z,4.95
2022-09-15T11:50:57.841Z,3.03
2022-09-15T11:53:29.814Z,1.65
2022-09-15T11:56:01.571Z,4.63
2022-09-15T11:58:34.000Z,4.15
2022-09-15T12:01:03.602Z,5.60
2022-09-15T12:03:35.122Z,5.22
2022-09-15T12:06:07.754Z,6.40
2022-09-15T12:08:38.374Z,1.80
2022-09-15T12:11:08.040Z,3.45
2022-09-15T12:13:35.562Z,3.35
2022-09-15T12:16:03.764Z,4.63
2022-09-15T12:18:39.335Z,3.25
2022-09-15T12:21:12.780Z,3.33
2022-09-15T12:23:42.961Z,5.47
2022-09-15T12:26:16.272Z,2.70
2022-09-15T12:29:02.171Z,4.45
2022-09-15T12:31:33.995Z,4.30
2022-09-15T12:34:02.566Z,5.10
2022-09-15T12:36:38.331Z,4.28
2022-09-15T12:39:20.795Z,6.75
2022-09-15T12:41:49.069Z,3.95
2022-09-15T12:44:25.841Z,1.92
2022-09-15T12:46:55.229Z,2.33
2022-09-15T12:49:27.477Z,5.47
2022-09-15T12:51:55.429Z,3.80
2022-09-15T12:54:25.521Z,2.85
2022-09-15T12:56:54.390Z,5.22
2022-09-15T12:59:25.196Z,4.43
2022-09-15T13:01:53.498Z,3.30
2022-09-15T13:04:28.677Z,3.63
2022-09-15T13:07:14.580Z,4.32
2022-09-15T13:09:46.341Z,3.85
2022-09-15T13:12:16.008Z,5.40
2022-09-15T13:14:48.132Z,2.33
2022-09-15T13:17:18.143Z,3.40
2022-09-15T13:19:47.606Z,4.10
2022-09-15T13:22:18.318Z,5.60
2022-09-15T13:24:49.857Z,5.45
2022-09-15T13:27:19.255Z,4.85
2022-09-15T13:29:50.141Z,2.17
2022-09-15T13:32:24.486Z,4.20
2022-09-15T13:35:15.636Z,2.60
2022-09-15T13:38:07.004Z,2.05
2022-09-15T13:41:00.687Z,2.83
2022-09-15T13:43:40.817Z,3.38
2022-09-15T13:46:14.420Z,5.18
2022-09-15T13:48:57.015Z,4.10
2022-09-15T13:51:26.057Z,5.63
2022-09-15T13:53:54.697Z,8.05
2022-09-15T13:56:26.472Z,4.90
2022-09-15T13:59:01.070Z,2.90
2022-09-15T14:01:35.261Z,5.07
2022-09-15T14:04:05.387Z,4.32
2022-09-15T14:06:36.032Z,3.15
2022-09-15T14:09:07.404Z,3.22
2022-09-15T14:11:37.295Z,4.43
2022-09-15T14:14:07.491Z,3.33
2022-09-15T14:16:35.880Z,4.47
2022-09-15T14:19:04.545Z,4.22
2022-09-15T14:21:32.968Z,2.63
2022-09-15T14:24:03.453Z,4.05
2022-09-15T14:26:31.854Z,2.85
2022-09-15T14:29:01.743Z,3.85
2022-09-15T14:31:31.310Z,3.63
2022-09-15T14:33:59.122Z,2.72
2022-09-15T14:36:28.207Z,3.30
2022-09-15T14:39:03.771Z,4.07
2022-09-15T14:41:33.025Z,1.75
2022-09-15T14:44:01.963Z,6.70
2022-09-15T14:46:36.381Z,4.40
2022-09-15T14:49:10.596Z,5.80
2022-09-15T14:51:38.074Z,5.35
2022-09-15T14:54:06.828Z,4.15
2022-09-15T14:56:35.987Z,3.40
2022-09-15T14:59:06.622Z,3.75
2022-09-15T15:01:36.644Z,2.97
2022-09-15T15:04:09.721Z,3.92
2022-09-15T15:06:39.111Z,3.05
2022-09-15T15:09:08.247Z,1.80
2022-09-15T15:11:36.066Z,3.70
2022-09-15T15:14:06.830Z,2.80
2022-09-15T15:16:34.588Z,7.93
2022-09-15T15:19:02.380Z,4.70
2022-09-15T15:21:40.005Z,4.90
2022-09-15T15:24:17.205Z,4.07
2022-09-15T15:26:45.471Z,3.45
2022-09-15T15:29:28.795Z,4.18
2022-09-15T15:32:05.940Z,5.32
2022-09-15T15:34:33.406Z,3.47
2022-09-15T15:37:03.122Z,1.80
2022-09-15T15:39:30.831Z,4.63
2022-09-15T15:42:02.778Z,4.80
2022-09-15T15:44:30.981Z,3.53
2022-09-15T15:47:01.396Z,3.58
2022-09-15T15:49:31.812Z,6.28
2022-09-15T15:54:27.454Z,4.25
2022-09-15T15:56:55.105Z,2.10
2022-09-15T15:59:22.561Z,1.73
2022-09-15T16:01:51.660Z,2.20
2022-09-15T16:04:19.124Z,3.13
2022-09-15T16:06:48.561Z,1.45
2022-09-15T16:09:17.179Z,3.90
2022-09-15T16:11:45.212Z,5.47
2022-09-15T16:14:14.073Z,2.53
2022-09-15T16:16:41.656Z,2.22
2022-09-15T16:19:09.618Z,4.10
2022-09-15T16:21:39.659Z,3.95
2022-09-15T16:24:12.730Z,7.50
2022-09-15T16:26:40.461Z,4.20
2022-09-15T16:29:08.011Z,4.60
2022-09-15T16:31:35.610Z,2.58
2022-09-15T16:34:03.143Z,1.98
2022-09-15T16:36:31.497Z,3.78
2022-09-15T16:38:58.938Z,5.10
2022-09-15T16:41:27.702Z,3.65
2022-09-15T16:43:55.725Z,1.52
2022-09-15T16:46:23.242Z,5.28
2022-09-15T16:48:50.663Z,3.65
2022-09-15T16:51:34.490Z,2.83
2022-09-15T16:54:01.945Z,2.47
2022-09-15T16:56:30.702Z,4.05
2022-09-15T16:59:00.547Z,2.55
2022-09-15T17:01:28.817Z,2.17
2022-09-15T17:03:56.194Z,2.40
2022-09-15T17:06:23.670Z,2.30
2022-09-15T17:08:51.138Z,3.45
2022-09-15T17:11:19.289Z,3.05
2022-09-15T17:13:48.109Z,5.05
2022-09-15T17:16:16.371Z,2.28
2022-09-15T17:18:43.956Z,4.97
2022-09-15T17:21:12.116Z,5.32
2022-09-15T17:23:40.576Z,8.98
2022-09-15T17:26:11.414Z,4.57
2022-09-15T17:28:39.462Z,2.25
2022-09-15T17:31:13.165Z,5.30
2022-09-15T17:33:40.714Z,4.65
2022-09-15T17:36:08.311Z,2.70
2022-09-15T17:38:35.777Z,1.58
2022-09-15T17:41:03.259Z,4.50
2022-09-15T17:43:31.588Z,2.25
2022-09-15T17:45:59.236Z,5.63
2022-09-15T17:48:28.076Z,3.13
2022-09-15T17:50:55.555Z,4.03
2022-09-15T17:53:24.029Z,4.30
2022-09-15T17:55:51.671Z,3.30
2022-09-15T17:58:19.483Z,3.20
2022-09-15T18:00:47.366Z,4.82
2022-09-15T18:03:20.330Z,5.63
2022-09-15T18:05:49.342Z,4.68
2022-09-15T18:08:16.892Z,3.92
2022-09-15T18:10:44.653Z,4.47
2022-09-15T18:13:14.470Z,3.70
2022-09-15T18:15:42.804Z,5.22
2022-09-15T18:18:12.684Z,4.20
2022-09-15T18:20:40.170Z,5.25
2022-09-15T18:23:11.048Z,2.08
2022-09-15T18:25:38.484Z,4.43
2022-09-15T18:28:05.943Z,3.75
2022-09-15T18:30:36.286Z,2.20
2022-09-15T18:33:03.833Z,3.00
2022-09-15T18:35:31.266Z,2.88
2022-09-15T18:37:59.685Z,6.60
2022-09-15T18:40:28.661Z,4.82
2022-09-15T18:42:56.624Z,2.13
2022-09-15T18:45:24.136Z,5.18
2022-09-15T18:47:52.414Z,2.80
2022-09-15T18:50:20.848Z,2.83
2022-09-15T18:52:48.463Z,3.58
2022-09-15T18:55:17.211Z,3.63
2022-09-15T18:57:46.034Z,3.78
2022-09-15T19:00:14.525Z,1.30
2022-09-15T19:02:42.067Z,3.65
2022-09-15T19:05:11.363Z,2.72
2022-09-15T19:07:38.966Z,7.75
2022-09-15T19:10:06.936Z,2.72
2022-09-15T19:12:35.521Z,2.25
2022-09-15T19:15:04.522Z,4.97
2022-09-15T19:17:32.017Z,3.78
2022-09-15T19:20:00.259Z,2.08
2022-09-15T19:22:27.806Z,3.20
2022-09-15T19:24:55.302Z,3.80
2022-09-15T19:27:23.389Z,4.03
2022-09-15T19:29:50.921Z,4.55
2022-09-15T19:32:20.883Z,4.88
2022-09-15T19:34:48.990Z,4.07
2022-09-15T19:37:18.995Z,3.67
2022-09-15T19:39:46.839Z,5.35
2022-09-15T19:44:43.170Z,2.38
2022-09-15T19:47:10.995Z,6.13
2022-09-15T19:49:39.787Z,2.95
2022-09-15T19:52:07.241Z,2.90
2022-09-15T19:54:35.240Z,4.07
2022-09-15T19:57:02.900Z,2.47
2022-09-15T19:59:31.866Z,4.45
2022-09-15T20:01:59.978Z,3.45
2022-09-15T20:04:27.804Z,1.75
2022-09-15T20:06:56.573Z,7.07
2022-09-15T20:09:24.017Z,2.95
2022-09-15T20:11:51.493Z,4.43
2022-09-15T20:14:18.932Z,2.17
2022-09-15T20:16:46.394Z,4.70
2022-09-15T20:19:13.915Z,4.22
2022-09-15T20:21:50.886Z,3.85
2022-09-15T20:24:20.802Z,3.97
2022-09-15T20:26:48.381Z,1.50
2022-09-15T20:29:15.801Z,3.35
2022-09-15T20:31:43.490Z,2.63
2022-09-15T20:34:11.023Z,0.88
2022-09-15T20:36:39.368Z,3.13
2022-09-15T20:39:08.736Z,3.20
2022-09-15T20:41:37.709Z,2.72
2022-09-15T20:44:05.965Z,4.22
2022-09-15T20:46:33.466Z,2.03
2022-09-15T20:49:01.353Z,3.47
2022-09-15T20:51:31.676Z,2.17
2022-09-15T20:54:00.222Z,3.50
2022-09-15T20:56:28.797Z,2.58
2022-09-15T20:58:58.380Z,2.17
2022-09-15T21:01:26.797Z,2.08
2022-09-15T21:03:55.212Z,0.98
2022-09-15T21:06:23.953Z,2.03
2022-09-15T21:08:51.385Z,4.75
2022-09-15T21:11:19.434Z,2.67
2022-09-15T21:13:47.154Z,2.53
2022-09-15T21:16:16.638Z,2.13
2022-09-15T21:18:44.407Z,5.35
2022-09-15T21:21:13.102Z,2.03
2022-09-15T21:23:41.668Z,1.65
2022-09-15T21:26:10.201Z,6.22
2022-09-15T21:28:38.498Z,3.63
2022-09-15T21:31:06.610Z,1.80
2022-09-15T21:33:35.900Z,4.47
2022-09-15T21:36:04.970Z,4.45
2022-09-15T21:38:32.515Z,3.05
2022-09-15T21:40:59.991Z,2.55
2022-09-15T21:43:29.982Z,3.45
2022-09-15T21:45:57.495Z,1.80
2022-09-15T21:48:24.918Z,3.13
2022-09-15T21:50:54.002Z,2.65
2022-09-15T21:53:21.796Z,4.60
2022-09-15T21:55:50.299Z,2.10
2022-09-15T21:58:17.807Z,0.85
2022-09-15T22:00:45.312Z,2.90
2022-09-15T22:03:12.989Z,2.42
2022-09-15T22:05:40.784Z,4.97
2022-09-15T22:08:10.416Z,3.88
2022-09-15T22:10:37.893Z,3.30
2022-09-15T22:13:05.986Z,1.85
2022-09-15T22:15:33.602Z,4.90
2022-09-15T22:18:01.287Z,1.40
2022-09-15T22:20:29.354Z,1.65
2022-09-15T22:22:57.027Z,3.45
2022-09-15T22:25:26.408Z,6.35
2022-09-15T22:27:53.915Z,2.83
2022-09-15T22:30:21.408Z,4.40
2022-09-15T22:32:48.919Z,0.85
2022-09-15T22:35:17.293Z,3.17
2022-09-15T22:37:44.777Z,2.08
2022-09-15T22:40:12.397Z,3.85
2022-09-15T22:42:41.217Z,5.50
2022-09-15T22:45:11.472Z,3.35
2022-09-15T22:47:38.925Z,4.15
2022-09-15T22:50:06.510Z,2.85
2022-09-15T22:52:33.974Z,5.18
2022-09-15T22:55:01.823Z,2.75
2022-09-15T22:57:29.326Z,3.58
2022-09-15T22:59:58.120Z,3.60
2022-09-15T23:02:25.619Z,3.03
2022-09-15T23:04:54.182Z,4.20
2022-09-15T23:07:21.601Z,3.97
2022-09-15T23:09:49.267Z,5.38
2022-09-15T23:12:17.132Z,3.83
2022-09-15T23:14:44.567Z,2.63
2022-09-15T23:17:13.327Z,2.78
2022-09-15T23:19:40.760Z,6.15
2022-09-15T23:22:08.160Z,4.05
2022-09-15T23:24:35.773Z,5.53
2022-09-15T23:27:04.344Z,4.82
2022-09-15T23:29:31.833Z,5.00
2022-09-15T23:31:59.388Z,5.00
2022-09-15T23:34:28.207Z,4.50
2022-09-15T23:36:55.847Z,2.55
2022-09-15T23:39:23.453Z,5.30
2022-09-15T23:41:50.872Z,4.55
2022-09-15T23:44:18.277Z,5.25
2022-09-15T23:46:45.811Z,4.80
2022-09-15T23:49:17.983Z,3.17
2022-09-15T23:51:47.488Z,3.22
2022-09-15T23:54:14.989Z,4.18
2022-09-15T23:56:43.268Z,5.93
2022-09-15T23:59:10.778Z,5.55
